Time;durP1;ratioP1;P1;durP2;ratioP2;P2;SDS_P1;SDS_P2;PMS_P1;PMS_P2;Temp;Humidity;BMP_temperature;BMP_pressure;BME280_temperature;BME280_humidity;BME280_pressure;Samples;Min_cycle;Max_cycle;Signal;HPM_P1;HPM_P2
2024/04/19 00:00:27;;;;;;;1.70;0.20;;;;;;;8.41;65.34;98762.67;106097;1254;64516;-68
2024/04/19 00:02:55;;;;;;;0.20;0.00;;;;;;;8.38;65.54;98759.41;106025;1260;61215;-68
2024/04/19 00:05:22;;;;;;;1.20;0.20;;;;;;;8.35;65.91;98761.02;106111;1260;71524;-65
2024/04/19 00:07:50;;;;;;;0.20;0.10;;;;;;;8.32;65.82;98765.36;106170;1260;61304;-67
2024/04/19 00:10:17;;;;;;;1.10;0.00;;;;;;;8.27;65.87;98763.42;106272;1260;61345;-68
2024/04/19 00:12:44;;;;;;;0.20;0.00;;;;;;;8.25;65.92;98763.40;105969;1263;68346;-69
2024/04/19 00:15:12;;;;;;;0.00;0.00;;;;;;;8.30;65.96;98766.41;106139;1263;61913;-73
2024/04/19 00:17:40;;;;;;;0.80;0.10;;;;;;;8.36;65.93;98765.90;105058;1259;62438;-65
2024/04/19 00:20:27;;;;;;;1.40;0.10;;;;;;;8.41;65.81;98764.57;106197;1269;61397;-69
2024/04/19 00:23:07;;;;;;;0.30;0.10;;;;;;;8.38;65.70;98768.09;106047;1254;61392;-69
2024/04/19 00:25:35;;;;;;;0.60;0.30;;;;;;;8.35;65.63;98768.72;106137;1261;65650;-69
2024/04/19 00:28:02;;;;;;;0.10;0.00;;;;;;;8.30;65.63;98766.92;105983;1262;61436;-63
2024/04/19 00:30:30;;;;;;;0.50;0.10;;;;;;;8.26;65.81;98769.45;106040;1260;66069;-68
2024/04/19 00:32:57;;;;;;;0.00;0.00;;;;;;;8.26;65.79;98767.56;106014;1256;61247;-65
2024/04/19 00:35:40;;;;;;;0.00;0.00;;;;;;;8.28;65.49;98772.77;106080;1268;61429;-66
2024/04/19 00:38:07;;;;;;;0.50;0.00;;;;;;;8.30;65.37;98776.23;106150;1254;66754;-67
2024/04/19 00:40:35;;;;;;;0.00;0.00;;;;;;;8.31;65.30;98775.09;106146;1260;70181;-64
2024/04/19 00:43:03;;;;;;;1.70;0.50;;;;;;;8.30;65.32;98773.39;106081;1260;62532;-65
2024/04/19 00:45:34;;;;;;;1.20;0.20;;;;;;;8.29;65.45;98776.84;106167;1260;61295;-67
2024/04/19 00:48:10;;;;;;;0.40;0.10;;;;;;;8.27;65.34;98777.08;106430;1255;61306;-65
2024/04/19 00:50:57;;;;;;;0.30;0.00;;;;;;;8.18;65.41;98781.38;106136;1255;66034;-66
2024/04/19 00:53:28;;;;;;;0.60;0.10;;;;;;;8.15;65.37;98786.94;106150;1255;61269;-63
2024/04/19 00:55:59;;;;;;;0.60;0.10;;;;;;;8.16;65.42;98792.75;106609;1260;62522;-65
2024/04/19 00:58:27;;;;;;;0.20;0.00;;;;;;;8.19;65.57;98797.34;106027;1257;61368;-66
2024/04/19 01:00:56;;;;;;;0.90;0.20;;;;;;;8.23;65.47;98802.63;106124;1254;60222;-68
2024/04/19 01:03:24;;;;;;;0.30;0.00;;;;;;;8.24;65.41;98806.39;106102;1259;64499;-65
2024/04/19 01:05:51;;;;;;;0.80;0.20;;;;;;;8.21;65.37;98810.31;106110;1260;61398;-70
2024/04/19 01:08:25;;;;;;;0.20;0.00;;;;;;;8.16;65.39;98815.51;105979;1257;63706;-69
2024/04/19 01:10:52;;;;;;;1.20;0.10;;;;;;;8.10;65.57;98817.27;106023;1254;61244;-68
2024/04/19 01:13:20;;;;;;;0.10;0.00;;;;;;;8.09;65.58;98819.31;105980;1261;61320;-66
2024/04/19 01:15:48;;;;;;;0.70;0.10;;;;;;;8.14;65.55;98820.27;105899;1254;66155;-73
2024/04/19 01:18:16;;;;;;;0.10;0.00;;;;;;;8.17;65.53;98820.77;105809;1260;61317;-62
2024/04/19 01:20:44;;;;;;;1.10;0.10;;;;;;;8.20;65.62;98823.66;105662;1260;62486;-65
2024/04/19 01:23:12;;;;;;;0.60;0.10;;;;;;;8.19;65.61;98826.05;105725;1255;61225;-70
2024/04/19 01:25:40;;;;;;;0.90;0.20;;;;;;;8.14;65.83;98826.65;105407;1258;61158;-67
2024/04/19 01:28:08;;;;;;;0.30;0.00;;;;;;;8.09;66.07;98827.64;106018;1260;66118;-70
2024/04/19 01:30:40;;;;;;;0.40;0.10;;;;;;;8.05;66.30;98821.62;105208;1259;61415;-71
2024/04/19 01:33:09;;;;;;;0.00;0.00;;;;;;;8.07;66.49;98823.65;105619;1255;63974;-75
2024/04/19 01:35:36;;;;;;;0.40;0.10;;;;;;;8.12;66.54;98826.98;106178;1260;61321;-70
2024/04/19 01:38:04;;;;;;;0.10;0.00;;;;;;;8.18;66.57;98828.34;105972;1259;61301;-71
2024/04/19 01:40:31;;;;;;;0.00;0.00;;;;;;;8.24;66.55;98827.65;106108;1254;65869;-69
2024/04/19 01:42:58;;;;;;;0.40;0.00;;;;;;;8.26;66.52;98831.33;105204;1255;61262;-69
2024/04/19 01:45:26;;;;;;;0.80;0.20;;;;;;;8.23;66.43;98829.44;105118;1255;62474;-67
2024/04/19 01:47:54;;;;;;;0.70;0.10;;;;;;;8.19;66.60;98833.91;105139;1261;61829;-65
2024/04/19 01:50:21;;;;;;;0.20;0.00;;;;;;;8.15;66.74;98827.45;105863;1259;61349;-63
2024/04/19 01:52:49;;;;;;;0.30;0.00;;;;;;;8.15;66.78;98830.23;105289;1254;65705;-68
2024/04/19 01:55:17;;;;;;;0.30;0.10;;;;;;;8.18;66.84;98834.33;106005;1264;61447;-66
2024/04/19 01:57:47;;;;;;;0.20;0.00;;;;;;;8.22;66.88;98838.43;105992;1254;64277;-68
2024/04/19 02:00:15;;;;;;;0.10;0.00;;;;;;;8.29;66.90;98840.42;106053;1257;61365;-69
2024/04/19 02:02:43;;;;;;;1.80;0.40;;;;;;;8.34;66.85;98842.88;105354;1260;61301;-67
2024/04/19 02:05:10;;;;;;;0.30;0.10;;;;;;;8.37;66.68;98847.21;105235;1259;65692;-65
2024/04/19 02:07:38;;;;;;;1.40;0.30;;;;;;;8.35;66.66;98854.16;105099;1255;61291;-66
2024/04/19 02:10:07;;;;;;;0.50;0.10;;;;;;;8.32;66.65;98863.22;105308;1260;62446;-73
2024/04/19 02:12:35;;;;;;;0.10;0.10;;;;;;;8.33;66.56;98864.84;109080;1254;58869;-72
2024/04/19 02:15:03;;;;;;;1.00;0.20;;;;;;;8.39;66.33;98861.90;108955;1255;58868;-71
2024/04/19 02:17:31;;;;;;;0.60;0.10;;;;;;;8.46;66.16;98866.88;109079;1254;65766;-70
2024/04/19 02:19:58;;;;;;;1.10;0.20;;;;;;;8.45;65.93;98865.30;109017;1254;61389;-67
2024/04/19 02:22:26;;;;;;;0.90;0.40;;;;;;;8.45;66.26;98868.02;108922;1258;63751;-66
2024/04/19 02:24:53;;;;;;;3.20;0.70;;;;;;;8.42;66.26;98873.11;107442;1257;61391;-72
2024/04/19 02:32:53;;;;;;;;;;;;;;;8.56;66.15;98876.76;105452;1254;61456;-73
2024/04/19 02:35:21;;;;;;;0.50;0.20;;;;;;;8.60;66.12;98873.19;105123;1257;63955;-68
2024/04/19 02:37:48;;;;;;;1.00;0.20;;;;;;;8.61;66.12;98881.49;106025;1254;61292;-69
2024/04/19 02:40:16;;;;;;;1.60;0.40;;;;;;;8.61;66.38;98884.29;106101;1259;61397;-69
2024/04/19 02:42:43;;;;;;;0.90;0.20;;;;;;;8.61;66.61;98887.07;106159;1259;66321;-66
2024/04/19 02:45:11;;;;;;;1.40;0.40;;;;;;;8.61;66.54;98890.72;106133;1254;61301;-67
2024/04/19 02:47:38;;;;;;;1.00;0.60;;;;;;;8.60;66.62;98894.54;106135;1258;63798;-68
2024/04/19 02:50:06;;;;;;;2.00;0.70;;;;;;;8.63;66.57;98903.55;106090;1254;61237;-64
2024/04/19 02:52:33;;;;;;;0.80;0.10;;;;;;;8.68;66.35;98906.89;105647;1261;61295;-65
2024/04/19 02:55:00;;;;;;;0.40;0.10;;;;;;;8.72;66.29;98909.64;105864;1259;65532;-66
2024/04/19 02:57:31;;;;;;;1.10;0.30;;;;;;;8.77;66.28;98901.67;106460;1256;61272;-66
2024/04/19 02:59:59;;;;;;;1.40;0.30;;;;;;;8.80;66.33;98915.01;106045;1259;64207;-69
2024/04/19 03:02:43;;;;;;;1.00;0.20;;;;;;;8.77;66.15;98917.53;106089;1260;60388;-68
2024/04/19 03:05:11;;;;;;;3.10;0.90;;;;;;;8.72;66.29;98923.73;106085;1260;61375;-67
2024/04/19 03:07:38;;;;;;;1.90;0.30;;;;;;;8.69;66.19;98920.70;106103;1254;65861;-75
2024/04/19 03:10:06;;;;;;;1.60;0.30;;;;;;;8.73;66.26;98920.13;106240;1259;61171;-68
2024/04/19 03:12:33;;;;;;;2.40;0.40;;;;;;;8.80;66.23;98925.14;106164;1254;62509;-66
2024/04/19 03:15:02;;;;;;;4.20;0.90;;;;;;;8.86;66.15;98932.28;105740;1254;61367;-73
2024/04/19 03:17:30;;;;;;;3.10;1.10;;;;;;;8.89;66.12;98934.23;106121;1255;61242;-69
2024/04/19 03:19:58;;;;;;;2.20;0.30;;;;;;;8.91;66.21;98941.70;106079;1260;65798;-68
2024/04/19 03:22:25;;;;;;;2.20;0.50;;;;;;;8.91;66.46;98938.20;106001;1254;61912;-67
2024/04/19 03:24:53;;;;;;;2.10;0.50;;;;;;;8.91;66.54;98935.59;106135;1260;62458;-68
2024/04/19 03:27:20;;;;;;;1.80;0.50;;;;;;;8.90;66.57;98938.86;106016;1254;61358;-66
2024/04/19 03:29:57;;;;;;;2.80;0.80;;;;;;;8.93;66.48;98940.83;106054;1255;61179;-70
2024/04/19 03:32:25;;;;;;;4.50;1.60;;;;;;;8.98;66.41;98945.59;106211;1259;65663;-65
2024/04/19 03:34:52;;;;;;;1.90;0.50;;;;;;;9.01;66.23;98942.32;105950;1260;61368;-67
2024/04/19 03:37:20;;;;;;;5.00;1.90;;;;;;;9.05;66.13;98941.58;106067;1257;63698;-72
2024/04/19 03:39:47;;;;;;;3.10;0.80;;;;;;;9.08;66.21;98947.09;106006;1259;61380;-67
2024/04/19 03:42:18;;;;;;;5.70;2.20;;;;;;;9.07;66.17;98951.70;106150;1255;61369;-67
2024/04/19 03:47:34;;;;;;;3.50;1.20;;;;;;;9.03;66.20;98956.81;106119;1254;61303;-67
2024/04/19 03:50:02;;;;;;;3.10;1.10;;;;;;;9.05;66.17;98963.50;106447;1254;63930;-63
2024/04/19 03:52:30;;;;;;;3.70;1.20;;;;;;;9.09;65.97;98974.23;106044;1256;61116;-68
2024/04/19 03:54:57;;;;;;;6.20;2.30;;;;;;;9.15;65.75;98971.46;106059;1254;61724;-71
2024/04/19 03:57:24;;;;;;;3.50;1.00;;;;;;;9.18;65.60;98984.13;106100;1254;64414;-67
2024/04/19 03:59:52;;;;;;;6.20;3.30;;;;;;;9.19;65.53;98985.43;105983;1257;61418;-71
2024/04/19 04:02:19;;;;;;;4.00;1.40;;;;;;;9.19;65.61;98989.95;106083;1254;63749;-70
2024/04/19 04:04:53;;;;;;;4.00;1.60;;;;;;;9.15;65.45;99000.13;106087;1260;61257;-66
2024/04/19 04:07:21;;;;;;;4.10;1.60;;;;;;;9.14;65.58;98996.45;106127;1254;61288;-69
2024/04/19 04:09:49;;;;;;;5.60;3.00;;;;;;;9.19;65.52;98997.65;105926;1254;65796;-63
2024/04/19 04:12:16;;;;;;;4.50;1.50;;;;;;;9.23;65.20;99003.20;105778;1261;61321;-64
2024/04/19 04:14:44;;;;;;;8.20;3.20;;;;;;;9.29;65.13;99006.13;106000;1259;64231;-65
2024/04/19 04:17:11;;;;;;;4.90;1.40;;;;;;;9.30;64.96;99015.98;106049;1256;61950;-62
2024/04/19 04:19:39;;;;;;;5.60;3.20;;;;;;;9.31;64.74;99016.11;106034;1254;61350;-67
2024/04/19 04:22:06;;;;;;;4.10;1.50;;;;;;;9.32;64.64;99019.31;106088;1258;65719;-65
2024/04/19 04:24:33;;;;;;;6.60;3.00;;;;;;;9.30;64.53;99025.45;105253;1254;61583;-69
2024/04/19 04:27:01;;;;;;;4.50;1.40;;;;;;;9.30;64.41;99036.29;106004;1256;64223;-67
2024/04/19 04:29:29;;;;;;;4.00;1.60;;;;;;;9.35;64.11;99044.25;106229;1254;61426;-67
2024/04/19 04:31:57;;;;;;;4.60;1.40;;;;;;;9.41;64.08;99040.20;105999;1254;61388;-62
2024/04/19 04:34:24;;;;;;;6.80;3.00;;;;;;;9.43;64.07;99048.72;106100;1254;65731;-63
2024/04/19 04:36:51;;;;;;;4.60;1.50;;;;;;;9.41;63.96;99050.60;106086;1260;60261;-62
2024/04/19 04:39:19;;;;;;;5.30;1.70;;;;;;;9.40;64.04;99047.90;106093;1257;63886;-65
2024/04/19 04:41:46;;;;;;;6.10;3.20;;;;;;;9.41;64.26;99062.21;106070;1256;61292;-66
2024/04/19 04:44:15;;;;;;;3.20;1.20;;;;;;;9.44;63.99;99061.60;106047;1254;61182;-63
2024/04/19 04:46:42;;;;;;;4.50;1.30;;;;;;;9.52;64.02;99047.14;106140;1259;66889;-73
2024/04/19 04:49:09;;;;;;;8.40;4.00;;;;;;;9.60;63.80;99052.90;105496;1256;61259;-68
2024/04/19 04:51:37;;;;;;;4.80;1.30;;;;;;;9.68;63.66;99070.12;106390;1256;62605;-66
2024/04/19 04:54:05;;;;;;;8.80;3.70;;;;;;;9.74;63.36;99082.52;105967;1257;61305;-63
2024/04/19 04:56:32;;;;;;;3.80;1.30;;;;;;;9.72;62.94;99083.25;105782;1254;61763;-65
2024/04/19 04:58:59;;;;;;;7.10;3.40;;;;;;;9.71;63.18;99089.29;106011;1254;66205;-67
2024/04/19 05:01:27;;;;;;;3.70;1.10;;;;;;;9.70;63.20;99088.11;105974;1259;61340;-68
2024/04/19 05:03:56;;;;;;;4.10;1.60;;;;;;;9.75;63.19;99088.94;105705;1254;63669;-58
2024/04/19 05:06:25;;;;;;;5.90;3.40;;;;;;;9.80;62.70;99099.59;106706;1254;62659;-73
2024/04/19 05:08:52;;;;;;;4.80;1.30;;;;;;;9.85;62.65;99101.91;107022;1258;59708;-71
2024/04/19 05:11:20;;;;;;;3.80;1.40;;;;;;;9.88;62.47;99107.29;105500;1259;66163;-61
2024/04/19 05:13:48;;;;;;;6.00;3.40;;;;;;;9.89;62.70;99109.40;105183;1259;61329;-62
2024/04/19 05:16:15;;;;;;;4.50;1.70;;;;;;;9.92;62.71;99105.98;106119;1257;64200;-57
2024/04/19 05:18:43;;;;;;;6.10;3.30;;;;;;;9.96;62.76;99109.39;105234;1259;61218;-61
2024/04/19 05:21:10;;;;;;;3.20;1.00;;;;;;;10.03;62.73;99111.91;105264;1254;61379;-63
2024/04/19 05:23:38;;;;;;;7.80;3.10;;;;;;;10.09;62.44;99115.66;109067;1256;65954;-71
2024/04/19 05:26:05;;;;;;;4.10;1.30;;;;;;;10.16;62.32;99117.26;109126;1254;60291;-64
2024/04/19 05:28:34;;;;;;;4.20;1.90;;;;;;;10.19;62.01;99124.46;109097;1254;62551;-68
2024/04/19 05:31:02;;;;;;;6.40;3.80;;;;;;;10.20;61.79;99130.40;109057;1254;59842;-61
2024/04/19 05:33:30;;;;;;;6.10;3.50;;;;;;;10.19;61.54;99130.43;109040;1256;59277;-57
2024/04/19 05:35:57;;;;;;;4.60;1.60;;;;;;;10.23;61.50;99136.02;109114;1254;65809;-69
2024/04/19 05:38:25;;;;;;;6.80;3.50;;;;;;;10.28;61.28;99138.53;107841;1254;61797;-65
2024/04/19 05:40:52;;;;;;;5.40;2.90;;;;;;;10.35;60.76;99150.48;105857;1254;178644;-65
2024/04/19 05:44:55;;;;;;;4.10;1.70;;;;;;;10.02;60.93;99156.33;102859;1295;601011;-67
2024/04/19 05:47:23;;;;;;;6.00;3.30;;;;;;;10.30;60.25;99155.20;105634;1264;59726;-64
2024/04/19 05:49:50;;;;;;;5.50;1.40;;;;;;;10.37;60.39;99157.30;104329;1264;59633;-71
2024/04/19 05:52:18;;;;;;;7.80;3.50;;;;;;;10.40;59.73;99171.95;104910;1267;64186;-68
2024/04/19 05:54:45;;;;;;;5.70;1.70;;;;;;;10.43;59.18;99168.29;105312;1270;62733;-64
2024/04/19 05:57:13;;;;;;;5.80;3.00;;;;;;;10.56;59.09;99164.73;104030;1267;166961;-69
2024/04/19 05:59:40;;;;;;;5.30;1.60;;;;;;;10.66;58.48;99176.93;105566;1268;59749;-63
2024/04/19 06:02:08;;;;;;;5.80;3.00;;;;;;;10.69;57.83;99177.54;108584;1261;62554;-66
2024/04/19 06:04:35;;;;;;;7.10;3.40;;;;;;;10.75;57.99;99178.14;108784;1257;62988;-66
2024/04/19 06:07:03;;;;;;;6.20;3.40;;;;;;;10.77;57.58;99187.59;108858;1257;72603;-63
2024/04/19 06:09:31;;;;;;;3.60;1.40;;;;;;;10.84;57.38;99189.00;108795;1258;64780;-66
2024/04/19 06:12:01;;;;;;;5.80;3.10;;;;;;;10.86;57.41;99200.66;106658;1263;60652;-70
2024/04/19 06:14:29;;;;;;;6.20;2.90;;;;;;;10.87;56.92;99203.95;104953;1262;60478;-66
2024/04/19 06:16:57;;;;;;;3.90;1.40;;;;;;;10.91;56.51;99213.15;105893;1258;76080;-62
2024/04/19 06:19:24;;;;;;;4.60;2.50;;;;;;;10.96;56.65;99223.18;104857;1257;63533;-65
2024/04/19 06:21:52;;;;;;;5.70;2.90;;;;;;;10.95;56.36;99232.38;105054;1261;63861;-67
2024/04/19 06:24:23;;;;;;;4.20;1.40;;;;;;;10.92;56.40;99236.89;104927;1264;61327;-65
2024/04/19 06:26:51;;;;;;;5.30;3.10;;;;;;;10.90;56.70;99237.33;105952;1263;60454;-66
2024/04/19 06:29:19;;;;;;;5.60;3.10;;;;;;;10.85;56.29;99244.52;104764;1258;66768;-67
2024/04/19 06:31:47;;;;;;;4.30;1.40;;;;;;;10.75;56.16;99247.38;105315;1263;63490;-64
2024/04/19 06:34:14;;;;;;;6.90;3.30;;;;;;;10.65;56.52;99249.27;106031;1263;65923;-65
2024/04/19 06:36:42;;;;;;;3.60;1.20;;;;;;;10.63;56.82;99254.90;106018;1265;60478;-63
2024/04/19 06:39:26;;;;;;;6.30;3.00;;;;;;;10.66;56.38;99253.22;105421;1258;60581;-72
2024/04/19 06:41:57;;;;;;;4.50;1.80;;;;;;;10.72;56.45;99261.20;105196;1266;67623;-65
2024/04/19 06:44:25;;;;;;;8.50;3.60;;;;;;;10.76;56.37;99271.25;106262;1264;72606;-63
2024/04/19 06:46:52;;;;;;;4.70;1.40;;;;;;;10.73;56.29;99273.43;105042;1264;71595;-61
2024/04/19 06:49:20;;;;;;;5.50;3.40;;;;;;;10.72;56.68;99275.73;105543;1258;62327;-67
2024/04/19 06:51:48;;;;;;;4.50;1.80;;;;;;;10.72;56.97;99280.70;105710;1263;61041;-61
2024/04/19 06:54:16;;;;;;;5.30;3.00;;;;;;;10.73;56.88;99280.23;104982;1263;75920;-64
2024/04/19 06:56:43;;;;;;;3.70;1.30;;;;;;;10.73;56.57;99289.59;105723;1263;72516;-67
2024/04/19 06:59:11;;;;;;;5.70;3.40;;;;;;;10.73;56.43;99298.95;105584;1257;62670;-64
2024/04/19 07:01:38;;;;;;;6.80;3.20;;;;;;;10.76;56.63;99304.62;104893;1263;60627;-63
2024/04/19 07:04:06;;;;;;;3.50;1.20;;;;;;;10.77;56.50;99309.94;105990;1266;60395;-69
2024/04/19 07:06:34;;;;;;;7.40;3.70;;;;;;;10.73;56.31;99325.65;105746;1261;64210;-66
2024/04/19 07:09:11;;;;;;;5.60;1.40;;;;;;;10.69;56.59;99322.41;105830;1264;72710;-70
2024/04/19 07:11:39;;;;;;;6.00;3.60;;;;;;;10.63;56.57;99322.77;105655;1258;64911;-66
2024/04/19 07:14:07;;;;;;;4.40;1.60;;;;;;;10.58;56.54;99342.65;104901;1264;62257;-66
2024/04/19 07:16:34;;;;;;;6.60;3.30;;;;;;;10.52;56.53;99339.10;105041;1264;62581;-66
2024/04/19 07:19:06;;;;;;;5.20;2.90;;;;;;;10.52;56.67;99337.85;105272;1266;76129;-65
2024/04/19 07:21:33;;;;;;;3.20;1.00;;;;;;;10.61;56.41;99342.64;105006;1264;63407;-67
2024/04/19 07:24:01;;;;;;;6.70;3.30;;;;;;;10.70;55.94;99341.73;105704;1263;66392;-65
2024/04/19 07:26:28;;;;;;;5.90;2.10;;;;;;;10.74;55.57;99354.63;105590;1265;60564;-64
2024/04/19 07:28:59;;;;;;;5.30;2.90;;;;;;;10.78;55.77;99348.01;105455;1258;60988;-71
2024/04/19 07:31:27;;;;;;;6.30;2.30;;;;;;;10.79;56.11;99356.80;106663;1257;66988;-65
2024/04/19 07:33:55;;;;;;;5.70;3.30;;;;;;;10.73;55.23;99364.39;107499;1257;63310;-62
2024/04/19 07:36:23;;;;;;;5.90;3.20;;;;;;;10.61;54.88;99369.96;105516;1261;75282;-68
2024/04/19 07:38:52;;;;;;;3.10;1.00;;;;;;;10.56;55.40;99365.38;105705;1258;60466;-67
2024/04/19 07:41:19;;;;;;;5.80;3.20;;;;;;;10.52;55.76;99367.48;105705;1259;62282;-68
2024/04/19 07:43:47;;;;;;;5.50;1.00;;;;;;;10.50;55.32;99373.66;105716;1264;63788;-64
2024/04/19 07:46:22;;;;;;;3.80;1.50;;;;;;;10.49;55.34;99376.55;105496;1263;71162;-66
2024/04/19 07:48:49;;;;;;;7.60;2.60;;;;;;;10.50;55.67;99375.71;105468;1258;66451;-68
2024/04/19 07:51:17;;;;;;;3.20;1.10;;;;;;;10.62;55.58;99374.41;105851;1257;62873;-67
2024/04/19 07:53:45;;;;;;;9.30;3.60;;;;;;;10.74;55.36;99383.80;105497;1263;61218;-68
2024/04/19 07:56:12;;;;;;;5.00;1.70;;;;;;;10.84;55.65;99386.04;105044;1258;64373;-68
2024/04/19 07:58:40;;;;;;;6.30;3.90;;;;;;;10.92;55.67;99395.59;105948;1265;60413;-69
2024/04/19 08:01:07;;;;;;;8.20;4.00;;;;;;;11.01;55.53;99401.70;105602;1263;74939;-66
2024/04/19 08:03:36;;;;;;;3.10;1.10;;;;;;;11.05;54.55;99405.55;104808;1258;60444;-63
2024/04/19 08:06:03;;;;;;;5.30;2.70;;;;;;;11.04;54.40;99406.16;105207;1257;62172;-70
2024/04/19 08:08:31;;;;;;;9.10;3.60;;;;;;;11.04;54.33;99411.77;105912;1259;64085;-70
2024/04/19 08:10:59;;;;;;;6.40;3.30;;;;;;;11.04;54.34;99419.73;105977;1257;63889;-66
2024/04/19 08:13:26;;;;;;;3.40;1.00;;;;;;;11.02;54.06;99425.66;104754;1263;62795;-64
2024/04/19 08:15:54;;;;;;;5.60;2.90;;;;;;;11.01;54.07;99427.20;105493;1260;60411;-64
2024/04/19 08:18:22;;;;;;;4.20;1.80;;;;;;;10.99;53.84;99440.17;104944;1264;60504;-71
2024/04/19 08:20:49;;;;;;;4.90;2.60;;;;;;;10.99;53.66;99431.08;105948;1264;65129;-72
2024/04/19 08:23:17;;;;;;;6.80;2.70;;;;;;;11.03;54.09;99437.39;105032;1264;60545;-72
2024/04/19 08:25:44;;;;;;;3.90;1.20;;;;;;;11.18;54.04;99449.50;104428;1264;74846;-64
2024/04/19 08:28:12;;;;;;;5.30;2.50;;;;;;;11.31;52.92;99451.64;104565;1262;60555;-65
2024/04/19 08:30:40;;;;;;;3.60;1.30;;;;;;;11.39;52.66;99450.72;107593;1263;59784;-67
2024/04/19 08:33:07;;;;;;;4.90;2.60;;;;;;;11.39;52.34;99458.73;106132;1257;63739;-72
2024/04/19 08:35:35;;;;;;;8.10;3.30;;;;;;;11.38;52.04;99471.66;106094;1260;61975;-63
2024/04/19 08:38:03;;;;;;;6.50;3.40;;;;;;;11.35;52.05;99472.81;105953;1262;76396;-63
2024/04/19 08:40:31;;;;;;;5.30;2.80;;;;;;;11.31;52.08;99491.09;106069;1258;60538;-65
2024/04/19 08:42:58;;;;;;;4.70;2.50;;;;;;;11.26;51.78;99490.27;105549;1258;60460;-65
2024/04/19 08:45:26;;;;;;;5.70;2.60;;;;;;;11.20;51.72;99494.11;104518;1258;65249;-64
2024/04/19 08:47:55;;;;;;;4.90;1.70;;;;;;;11.21;52.23;99488.05;107649;1257;72710;-68
2024/04/19 08:50:22;;;;;;;5.40;2.50;;;;;;;11.24;51.78;99494.21;105267;1263;72539;-64
2024/04/19 08:52:50;;;;;;;4.50;2.00;;;;;;;11.29;51.90;99498.71;105384;1261;60472;-64
2024/04/19 08:55:38;;;;;;;3.10;1.00;;;;;;;11.35;51.99;99499.71;104855;1257;62658;-67
2024/04/19 08:58:05;;;;;;;5.40;2.50;;;;;;;11.35;51.54;99500.08;106094;1263;67145;-64
2024/04/19 09:00:33;;;;;;;5.70;2.70;;;;;;;11.28;51.28;99508.92;105928;1257;64491;-60
2024/04/19 09:03:00;;;;;;;3.30;1.20;;;;;;;11.22;51.17;99509.17;105974;1261;74948;-63
2024/04/19 09:05:29;;;;;;;10.10;2.80;;;;;;;11.20;51.10;99507.46;105318;1263;62288;-58
2024/04/19 09:07:57;;;;;;;5.30;2.60;;;;;;;11.22;50.98;99507.67;108802;1257;60852;-66
2024/04/19 09:10:25;;;;;;;5.30;2.50;;;;;;;11.27;51.03;99512.05;108776;1257;67551;-61
2024/04/19 09:12:52;;;;;;;5.40;2.10;;;;;;;11.29;50.97;99506.98;108826;1258;71386;-64
2024/04/19 09:15:20;;;;;;;3.40;1.00;;;;;;;11.30;51.27;99515.44;108738;1263;74828;-65
2024/04/19 09:17:48;;;;;;;5.60;2.40;;;;;;;11.34;51.67;99522.65;108769;1257;61344;-63
2024/04/19 09:20:16;;;;;;;6.20;2.40;;;;;;;11.41;51.48;99523.89;108729;1257;61593;-62
2024/04/19 09:22:43;;;;;;;2.70;0.80;;;;;;;11.46;51.19;99531.86;108704;1259;65031;-67
2024/04/19 09:25:15;;;;;;;4.10;2.20;;;;;;;11.49;50.72;99528.92;107519;1261;60468;-66
2024/04/19 09:27:44;;;;;;;4.80;2.20;;;;;;;11.51;50.88;99527.80;104770;1260;64035;-76
2024/04/19 09:30:13;;;;;;;6.20;2.70;;;;;;;11.57;50.82;99539.18;105163;1261;62103;-72
2024/04/19 09:32:40;;;;;;;4.80;2.50;;;;;;;11.61;50.34;99536.88;105879;1263;60624;-68
2024/04/19 09:35:09;;;;;;;3.20;1.10;;;;;;;11.62;49.90;99541.93;106189;1263;65641;-65
2024/04/19 09:37:36;;;;;;;5.60;2.40;;;;;;;11.59;49.76;99554.81;105287;1261;63102;-64
2024/04/19 09:40:04;;;;;;;4.70;2.50;;;;;;;11.54;49.49;99565.63;105985;1264;75252;-66
2024/04/19 09:42:33;;;;;;;5.40;2.40;;;;;;;11.46;49.50;99573.26;105132;1264;62150;-66
2024/04/19 09:45:01;;;;;;;3.90;1.00;;;;;;;11.41;49.40;99582.25;106759;1261;62249;-64
2024/04/19 09:47:29;;;;;;;4.50;1.80;;;;;;;11.29;49.34;99585.92;105890;1257;65314;-67
2024/04/19 09:49:57;;;;;;;5.80;2.40;;;;;;;11.24;49.65;99586.60;106416;1260;71690;-64
2024/04/19 09:52:25;;;;;;;4.80;2.10;;;;;;;11.21;49.63;99594.80;105585;1263;63880;-64
2024/04/19 09:55:07;;;;;;;7.00;2.20;;;;;;;11.20;49.51;99600.35;104466;1267;61349;-64
2024/04/19 09:57:35;;;;;;;2.80;0.80;;;;;;;11.14;48.95;99606.52;106327;1257;61356;-62
2024/04/19 10:00:03;;;;;;;4.50;2.40;;;;;;;11.07;49.24;99607.55;105375;1264;68258;-62
2024/04/19 10:02:38;;;;;;;4.50;0.80;;;;;;;11.05;49.42;99617.60;108821;1258;60646;-67
2024/04/19 10:05:05;;;;;;;4.80;2.00;;;;;;;11.04;49.41;99622.01;108708;1259;75031;-64
2024/04/19 10:07:33;;;;;;;4.30;1.20;;;;;;;11.02;49.50;99630.14;105277;1260;61262;-65
2024/04/19 10:10:02;;;;;;;4.80;1.90;;;;;;;11.00;49.39;99631.92;105111;1264;61708;-62
2024/04/19 10:12:31;;;;;;;4.90;2.20;;;;;;;11.00;49.17;99636.13;104850;1265;74910;-70
2024/04/19 10:14:59;;;;;;;3.60;1.00;;;;;;;11.01;49.20;99637.79;106537;1263;61849;-66
2024/04/19 10:17:27;;;;;;;4.80;2.10;;;;;;;11.05;49.13;99636.71;106263;1261;74947;-60
2024/04/19 10:19:55;;;;;;;3.10;0.90;;;;;;;11.12;49.05;99627.63;108709;1257;59398;-65
2024/04/19 10:22:23;;;;;;;6.80;2.10;;;;;;;11.25;49.14;99631.12;106691;1260;61231;-63
2024/04/19 10:25:04;;;;;;;4.70;1.90;;;;;;;11.40;48.46;99635.18;104932;1263;67487;-66
2024/04/19 10:27:34;;;;;;;9.60;2.50;;;;;;;11.57;48.41;99632.61;105088;1257;72623;-64
2024/04/19 10:30:06;;;;;;;4.90;2.10;;;;;;;11.72;48.06;99635.25;104966;1262;73952;-66
2024/04/19 10:32:42;;;;;;;4.90;2.20;;;;;;;11.88;47.43;99635.33;105865;1263;61908;-68
2024/04/19 10:35:13;;;;;;;6.40;2.60;;;;;;;12.01;47.07;99632.60;106033;1258;61266;-63
2024/04/19 10:37:40;;;;;;;3.60;0.90;;;;;;;12.11;46.03;99639.58;104732;1264;69132;-64
2024/04/19 10:40:11;;;;;;;4.90;2.50;;;;;;;12.19;45.43;99637.39;104765;1257;73983;-63
2024/04/19 10:42:38;;;;;;;6.60;2.00;;;;;;;12.24;45.63;99637.90;104646;1258;63010;-63
2024/04/19 10:45:15;;;;;;;4.50;2.10;;;;;;;12.32;45.66;99643.99;104768;1260;61343;-66
2024/04/19 10:47:42;;;;;;;4.20;2.00;;;;;;;12.41;45.83;99634.10;105503;1257;61504;-65
2024/04/19 10:50:10;;;;;;;3.60;1.30;;;;;;;12.52;45.83;99647.30;105106;1260;68130;-65
2024/04/19 10:52:38;;;;;;;6.10;2.50;;;;;;;12.58;45.47;99651.64;104893;1258;61255;-61
2024/04/19 10:55:06;;;;;;;4.70;2.00;;;;;;;12.56;45.01;99651.83;105854;1257;63868;-63
2024/04/19 10:57:34;;;;;;;4.50;2.30;;;;;;;12.55;45.11;99654.59;106043;1259;61111;-62
2024/04/19 11:00:01;;;;;;;3.50;1.00;;;;;;;12.54;45.28;99666.68;105008;1258;61352;-61
2024/04/19 11:02:30;;;;;;;5.90;2.60;;;;;;;12.53;45.67;99672.74;106645;1257;76918;-67
2024/04/19 11:04:57;;;;;;;4.70;2.30;;;;;;;12.52;45.41;99675.30;105378;1255;61281;-69
2024/04/19 11:07:25;;;;;;;5.20;2.70;;;;;;;12.48;45.52;99674.99;106211;1257;74925;-61
2024/04/19 11:09:52;;;;;;;4.40;1.90;;;;;;;12.45;45.76;99677.89;106201;1254;61248;-61
2024/04/19 11:12:20;;;;;;;4.20;0.90;;;;;;;12.43;45.74;99676.00;105127;1256;61416;-65
2024/04/19 11:14:47;;;;;;;5.00;2.10;;;;;;;12.40;45.64;99683.33;105382;1260;66289;-64
2024/04/19 11:17:15;;;;;;;6.00;2.20;;;;;;;12.36;45.85;99690.19;105049;1257;61838;-66
2024/04/19 11:19:42;;;;;;;5.20;2.40;;;;;;;12.36;46.34;99692.52;106094;1260;73680;-66
2024/04/19 11:22:10;;;;;;;5.50;2.60;;;;;;;12.38;46.08;99691.92;106146;1254;62286;-68
2024/04/19 11:24:39;;;;;;;5.10;2.50;;;;;;;12.41;45.57;99689.04;106162;1260;61978;-66
2024/04/19 11:27:08;;;;;;;5.30;2.40;;;;;;;12.41;45.65;99690.54;105893;1254;68025;-66
2024/04/19 11:29:35;;;;;;;3.60;0.90;;;;;;;12.47;45.68;99693.88;105685;1259;61338;-63
2024/04/19 11:32:05;;;;;;;5.50;2.00;;;;;;;12.52;45.26;99700.48;104838;1258;64382;-64
2024/04/19 11:34:35;;;;;;;5.70;2.10;;;;;;;12.56;44.96;99699.52;108891;1254;60649;-65
2024/04/19 11:37:06;;;;;;;5.70;2.20;;;;;;;12.65;45.01;99696.36;108980;1256;61011;-64
2024/04/19 11:39:34;;;;;;;5.50;2.30;;;;;;;12.74;44.95;99693.50;109096;1254;65822;-66
2024/04/19 11:42:02;;;;;;;6.50;2.40;;;;;;;12.84;44.74;99696.54;108976;1254;64259;-62
2024/04/19 11:44:30;;;;;;;5.60;2.90;;;;;;;12.90;43.04;99704.20;108933;1254;74942;-61